sensor_id;sensor_type;location;lat;lon;timestamp;temperature;humidity
63202;DHT22;49296;48.188;11.566;2022-11-09T00:02:23;11.73;59.42
63202;DHT22;49296;48.188;11.566;2022-11-09T00:04:50;11.77;59.16
63202;DHT22;49296;48.188;11.566;2022-11-09T00:07:18;11.79;58.95
63202;DHT22;49296;48.188;11.566;2022-11-09T00:09:44;11.79;58.99
63202;DHT22;49296;48.188;11.566;2022-11-09T00:12:11;11.80;59.12
63202;DHT22;49296;48.188;11.566;2022-11-09T00:14:37;11.72;59.07
63202;DHT22;49296;48.188;11.566;2022-11-09T00:17:04;11.70;58.72
63202;DHT22;49296;48.188;11.566;2022-11-09T00:19:30;11.61;58.87
63202;DHT22;49296;48.188;11.566;2022-11-09T00:21:57;11.63;59.06
63202;DHT22;49296;48.188;11.566;2022-11-09T00:24:25;11.63;59.32
63202;DHT22;49296;48.188;11.566;2022-11-09T00:26:51;11.62;58.89
63202;DHT22;49296;48.188;11.566;2022-11-09T00:29:18;11.65;58.69
63202;DHT22;49296;48.188;11.566;2022-11-09T00:31:44;11.57;59.03
63202;DHT22;49296;48.188;11.566;2022-11-09T00:34:11;11.62;59.54
63202;DHT22;49296;48.188;11.566;2022-11-09T00:36:38;11.59;59.30
63202;DHT22;49296;48.188;11.566;2022-11-09T00:39:04;11.59;59.11
63202;DHT22;49296;48.188;11.566;2022-11-09T00:41:35;11.58;59.44
63202;DHT22;49296;48.188;11.566;2022-11-09T00:44:01;11.54;59.36
63202;DHT22;49296;48.188;11.566;2022-11-09T00:46:28;11.52;58.71
63202;DHT22;49296;48.188;11.566;2022-11-09T00:48:54;11.59;58.49
63202;DHT22;49296;48.188;11.566;2022-11-09T00:51:21;11.61;58.57
63202;DHT22;49296;48.188;11.566;2022-11-09T00:53:48;11.61;58.37
63202;DHT22;49296;48.188;11.566;2022-11-09T00:56:18;11.54;58.48
63202;DHT22;49296;48.188;11.566;2022-11-09T00:58:46;11.49;58.26
63202;DHT22;49296;48.188;11.566;2022-11-09T01:01:13;11.52;58.31
63202;DHT22;49296;48.188;11.566;2022-11-09T01:03:40;11.52;58.02
63202;DHT22;49296;48.188;11.566;2022-11-09T01:06:07;11.57;57.72
63202;DHT22;49296;48.188;11.566;2022-11-09T01:08:34;11.55;58.16
63202;DHT22;49296;48.188;11.566;2022-11-09T01:11:03;11.54;57.71
63202;DHT22;49296;48.188;11.566;2022-11-09T01:13:30;11.48;57.72
63202;DHT22;49296;48.188;11.566;2022-11-09T01:15:58;11.43;57.79
63202;DHT22;49296;48.188;11.566;2022-11-09T01:18:24;11.39;58.14
63202;DHT22;49296;48.188;11.566;2022-11-09T01:20:51;11.48;58.26
63202;DHT22;49296;48.188;11.566;2022-11-09T01:23:18;11.43;58.46
63202;DHT22;49296;48.188;11.566;2022-11-09T01:25:45;11.45;58.68
63202;DHT22;49296;48.188;11.566;2022-11-09T01:28:12;11.38;58.88
63202;DHT22;49296;48.188;11.566;2022-11-09T01:30:39;11.38;58.43
63202;DHT22;49296;48.188;11.566;2022-11-09T01:33:07;11.39;58.61
63202;DHT22;49296;48.188;11.566;2022-11-09T01:35:34;11.31;59.26
63202;DHT22;49296;48.188;11.566;2022-11-09T01:38:01;11.24;59.08
63202;DHT22;49296;48.188;11.566;2022-11-09T01:40:28;11.21;59.38
63202;DHT22;49296;48.188;11.566;2022-11-09T01:42:56;11.23;59.70
63202;DHT22;49296;48.188;11.566;2022-11-09T01:45:24;11.18;60.16
63202;DHT22;49296;48.188;11.566;2022-11-09T01:47:52;11.11;59.85
63202;DHT22;49296;48.188;11.566;2022-11-09T01:50:23;11.08;60.10
63202;DHT22;49296;48.188;11.566;2022-11-09T01:52:51;11.07;60.25
63202;DHT22;49296;48.188;11.566;2022-11-09T01:55:20;11.00;60.33
63202;DHT22;49296;48.188;11.566;2022-11-09T01:57:48;10.99;60.11
63202;DHT22;49296;48.188;11.566;2022-11-09T02:00:18;10.89;60.38
63202;DHT22;49296;48.188;11.566;2022-11-09T02:02:45;10.90;60.52
63202;DHT22;49296;48.188;11.566;2022-11-09T02:05:13;10.84;60.66
63202;DHT22;49296;48.188;11.566;2022-11-09T02:07:42;10.84;60.52
63202;DHT22;49296;48.188;11.566;2022-11-09T02:10:11;10.83;60.61
63202;DHT22;49296;48.188;11.566;2022-11-09T02:12:39;10.76;60.78
63202;DHT22;49296;48.188;11.566;2022-11-09T02:15:07;10.70;60.72
63202;DHT22;49296;48.188;11.566;2022-11-09T02:17:34;10.72;61.23
63202;DHT22;49296;48.188;11.566;2022-11-09T02:20:06;10.68;61.65
63202;DHT22;49296;48.188;11.566;2022-11-09T02:22:33;10.65;61.51
63202;DHT22;49296;48.188;11.566;2022-11-09T02:25:01;10.62;61.48
63202;DHT22;49296;48.188;11.566;2022-11-09T02:27:27;10.42;62.24
63202;DHT22;49296;48.188;11.566;2022-11-09T02:29:54;10.48;62.01
63202;DHT22;49296;48.188;11.566;2022-11-09T02:32:23;10.20;62.85
63202;DHT22;49296;48.188;11.566;2022-11-09T02:34:51;10.27;62.93
63202;DHT22;49296;48.188;11.566;2022-11-09T02:37:24;10.38;62.70
63202;DHT22;49296;48.188;11.566;2022-11-09T02:39:51;10.41;62.84
63202;DHT22;49296;48.188;11.566;2022-11-09T02:42:18;10.31;62.57
63202;DHT22;49296;48.188;11.566;2022-11-09T02:44:46;10.37;62.46
63202;DHT22;49296;48.188;11.566;2022-11-09T02:47:13;10.37;62.55
63202;DHT22;49296;48.188;11.566;2022-11-09T02:49:39;10.35;62.75
63202;DHT22;49296;48.188;11.566;2022-11-09T02:52:06;10.33;62.61
63202;DHT22;49296;48.188;11.566;2022-11-09T02:54:34;10.38;62.57
63202;DHT22;49296;48.188;11.566;2022-11-09T02:57:01;10.28;62.74
63202;DHT22;49296;48.188;11.566;2022-11-09T02:59:27;10.16;63.27
63202;DHT22;49296;48.188;11.566;2022-11-09T03:01:54;10.25;63.01
63202;DHT22;49296;48.188;11.566;2022-11-09T03:04:20;10.20;63.11
63202;DHT22;49296;48.188;11.566;2022-11-09T03:06:47;10.24;62.92
63202;DHT22;49296;48.188;11.566;2022-11-09T03:09:13;10.24;62.92
63202;DHT22;49296;48.188;11.566;2022-11-09T03:11:42;10.21;63.31
63202;DHT22;49296;48.188;11.566;2022-11-09T03:14:08;10.18;63.51
63202;DHT22;49296;48.188;11.566;2022-11-09T03:16:35;10.09;63.67
63202;DHT22;49296;48.188;11.566;2022-11-09T03:19:02;10.07;63.84
63202;DHT22;49296;48.188;11.566;2022-11-09T03:21:28;9.97;63.90
63202;DHT22;49296;48.188;11.566;2022-11-09T03:23:55;10.04;63.74
63202;DHT22;49296;48.188;11.566;2022-11-09T03:26:21;9.99;64.06
63202;DHT22;49296;48.188;11.566;2022-11-09T03:28:49;9.92;64.12
63202;DHT22;49296;48.188;11.566;2022-11-09T03:31:16;9.93;63.94
63202;DHT22;49296;48.188;11.566;2022-11-09T03:33:43;9.92;64.12
63202;DHT22;49296;48.188;11.566;2022-11-09T03:36:09;9.89;64.21
63202;DHT22;49296;48.188;11.566;2022-11-09T03:38:36;9.85;64.25
63202;DHT22;49296;48.188;11.566;2022-11-09T03:41:02;9.83;64.24
63202;DHT22;49296;48.188;11.566;2022-11-09T03:43:29;9.86;63.98
63202;DHT22;49296;48.188;11.566;2022-11-09T03:45:57;9.89;64.19
63202;DHT22;49296;48.188;11.566;2022-11-09T03:48:23;9.90;64.61
63202;DHT22;49296;48.188;11.566;2022-11-09T03:50:50;9.89;64.09
63202;DHT22;49296;48.188;11.566;2022-11-09T03:53:17;9.93;63.97
63202;DHT22;49296;48.188;11.566;2022-11-09T03:55:43;9.93;63.97
63202;DHT22;49296;48.188;11.566;2022-11-09T03:58:10;9.85;63.99
63202;DHT22;49296;48.188;11.566;2022-11-09T04:00:37;9.86;63.83
63202;DHT22;49296;48.188;11.566;2022-11-09T04:03:05;9.85;63.89
63202;DHT22;49296;48.188;11.566;2022-11-09T04:05:31;9.86;63.56
63202;DHT22;49296;48.188;11.566;2022-11-09T04:07:58;9.86;63.63
63202;DHT22;49296;48.188;11.566;2022-11-09T04:10:24;9.90;63.54
63202;DHT22;49296;48.188;11.566;2022-11-09T04:12:51;9.90;64.04
63202;DHT22;49296;48.188;11.566;2022-11-09T04:15:18;9.94;64.07
63202;DHT22;49296;48.188;11.566;2022-11-09T04:17:52;9.90;64.28
63202;DHT22;49296;48.188;11.566;2022-11-09T04:20:20;9.90;64.18
63202;DHT22;49296;48.188;11.566;2022-11-09T04:22:52;9.87;63.99
63202;DHT22;49296;48.188;11.566;2022-11-09T04:25:18;9.87;63.82
63202;DHT22;49296;48.188;11.566;2022-11-09T04:27:45;9.85;63.87
63202;DHT22;49296;48.188;11.566;2022-11-09T04:30:11;9.85;63.74
63202;DHT22;49296;48.188;11.566;2022-11-09T04:32:38;9.85;63.67
63202;DHT22;49296;48.188;11.566;2022-11-09T04:35:05;9.82;63.84
63202;DHT22;49296;48.188;11.566;2022-11-09T04:37:33;9.85;63.45
63202;DHT22;49296;48.188;11.566;2022-11-09T04:40:00;9.89;63.36
63202;DHT22;49296;48.188;11.566;2022-11-09T04:42:26;9.86;63.81
63202;DHT22;49296;48.188;11.566;2022-11-09T04:44:53;9.89;63.38
63202;DHT22;49296;48.188;11.566;2022-11-09T04:47:19;9.93;63.20
63202;DHT22;49296;48.188;11.566;2022-11-09T04:52:22;9.99;62.60
63202;DHT22;49296;48.188;11.566;2022-11-09T04:54:50;9.99;63.07
63202;DHT22;49296;48.188;11.566;2022-11-09T04:57:17;9.93;62.47
63202;DHT22;49296;48.188;11.566;2022-11-09T04:59:44;9.96;62.42
63202;DHT22;49296;48.188;11.566;2022-11-09T05:02:10;10.00;62.67
63202;DHT22;49296;48.188;11.566;2022-11-09T05:04:37;10.00;62.71
63202;DHT22;49296;48.188;11.566;2022-11-09T05:07:03;10.00;62.29
63202;DHT22;49296;48.188;11.566;2022-11-09T05:09:30;10.03;62.39
63202;DHT22;49296;48.188;11.566;2022-11-09T05:11:58;10.06;62.23
63202;DHT22;49296;48.188;11.566;2022-11-09T05:14:24;10.01;62.32
63202;DHT22;49296;48.188;11.566;2022-11-09T05:16:51;10.06;62.45
63202;DHT22;49296;48.188;11.566;2022-11-09T05:19:17;10.10;62.24
63202;DHT22;49296;48.188;11.566;2022-11-09T05:21:44;10.14;62.15
63202;DHT22;49296;48.188;11.566;2022-11-09T05:24:11;10.11;61.97
63202;DHT22;49296;48.188;11.566;2022-11-09T05:26:37;10.14;62.01
63202;DHT22;49296;48.188;11.566;2022-11-09T05:29:06;10.07;62.08
63202;DHT22;49296;48.188;11.566;2022-11-09T05:31:32;10.06;61.73
63202;DHT22;49296;48.188;11.566;2022-11-09T05:33:59;10.04;61.75
63202;DHT22;49296;48.188;11.566;2022-11-09T05:36:26;10.09;61.65
63202;DHT22;49296;48.188;11.566;2022-11-09T05:38:53;10.13;61.80
63202;DHT22;49296;48.188;11.566;2022-11-09T05:41:20;10.09;61.70
63202;DHT22;49296;48.188;11.566;2022-11-09T05:43:46;10.10;61.64
63202;DHT22;49296;48.188;11.566;2022-11-09T05:46:15;10.13;61.48
63202;DHT22;49296;48.188;11.566;2022-11-09T05:48:42;10.14;61.04
63202;DHT22;49296;48.188;11.566;2022-11-09T05:51:09;10.07;60.94
63202;DHT22;49296;48.188;11.566;2022-11-09T05:53:36;10.14;60.83
63202;DHT22;49296;48.188;11.566;2022-11-09T05:56:03;10.28;60.43
63202;DHT22;49296;48.188;11.566;2022-11-09T05:58:30;10.34;60.29
63202;DHT22;49296;48.188;11.566;2022-11-09T06:01:00;10.40;59.81
63202;DHT22;49296;48.188;11.566;2022-11-09T06:03:28;10.35;59.91
63202;DHT22;49296;48.188;11.566;2022-11-09T06:05:58;10.42;59.97
63202;DHT22;49296;48.188;11.566;2022-11-09T06:08:25;10.46;59.81
63202;DHT22;49296;48.188;11.566;2022-11-09T06:10:55;10.51;59.85
63202;DHT22;49296;48.188;11.566;2022-11-09T06:13:22;10.45;60.32
63202;DHT22;49296;48.188;11.566;2022-11-09T06:15:51;10.44;60.90
63202;DHT22;49296;48.188;11.566;2022-11-09T06:18:17;10.52;60.58
63202;DHT22;49296;48.188;11.566;2022-11-09T06:20:45;10.20;63.36
63202;DHT22;49296;48.188;11.566;2022-11-09T06:23:12;9.99;64.44
63202;DHT22;49296;48.188;11.566;2022-11-09T06:25:39;9.82;64.57
63202;DHT22;49296;48.188;11.566;2022-11-09T06:28:05;9.69;64.11
63202;DHT22;49296;48.188;11.566;2022-11-09T06:30:32;9.75;63.95
63202;DHT22;49296;48.188;11.566;2022-11-09T06:32:59;9.75;64.28
63202;DHT22;49296;48.188;11.566;2022-11-09T06:35:25;9.66;64.40
63202;DHT22;49296;48.188;11.566;2022-11-09T06:37:55;9.24;65.22
63202;DHT22;49296;48.188;11.566;2022-11-09T06:40:22;9.21;65.70
63202;DHT22;49296;48.188;11.566;2022-11-09T06:42:48;9.14;66.06
63202;DHT22;49296;48.188;11.566;2022-11-09T06:45:15;8.89;67.19
63202;DHT22;49296;48.188;11.566;2022-11-09T06:47:42;8.90;67.19
63202;DHT22;49296;48.188;11.566;2022-11-09T06:50:08;8.95;67.07
63202;DHT22;49296;48.188;11.566;2022-11-09T06:52:36;8.90;67.25
63202;DHT22;49296;48.188;11.566;2022-11-09T06:55:05;8.92;67.23
63202;DHT22;49296;48.188;11.566;2022-11-09T06:57:32;8.92;67.17
63202;DHT22;49296;48.188;11.566;2022-11-09T06:59:58;9.11;66.79
63202;DHT22;49296;48.188;11.566;2022-11-09T07:02:25;8.64;67.45
63202;DHT22;49296;48.188;11.566;2022-11-09T07:04:52;8.65;67.66
63202;DHT22;49296;48.188;11.566;2022-11-09T07:07:18;8.68;67.37
63202;DHT22;49296;48.188;11.566;2022-11-09T07:09:45;8.57;66.44
63202;DHT22;49296;48.188;11.566;2022-11-09T07:12:13;8.79;65.33
63202;DHT22;49296;48.188;11.566;2022-11-09T07:14:40;8.96;64.00
63202;DHT22;49296;48.188;11.566;2022-11-09T07:17:06;9.13;63.04
63202;DHT22;49296;48.188;11.566;2022-11-09T07:19:33;9.14;62.07
63202;DHT22;49296;48.188;11.566;2022-11-09T07:21:59;9.13;62.55
63202;DHT22;49296;48.188;11.566;2022-11-09T07:24:26;9.28;61.91
63202;DHT22;49296;48.188;11.566;2022-11-09T07:26:53;9.48;61.29
63202;DHT22;49296;48.188;11.566;2022-11-09T07:29:21;9.58;61.18
63202;DHT22;49296;48.188;11.566;2022-11-09T07:31:47;9.66;60.91
63202;DHT22;49296;48.188;11.566;2022-11-09T07:34:14;9.89;60.44
63202;DHT22;49296;48.188;11.566;2022-11-09T07:36:40;9.97;60.14
63202;DHT22;49296;48.188;11.566;2022-11-09T07:39:07;10.16;59.44
63202;DHT22;49296;48.188;11.566;2022-11-09T07:41:33;10.25;59.46
63202;DHT22;49296;48.188;11.566;2022-11-09T07:44:00;10.33;58.97
63202;DHT22;49296;48.188;11.566;2022-11-09T07:46:28;10.35;58.53
63202;DHT22;49296;48.188;11.566;2022-11-09T07:48:55;10.42;58.40
63202;DHT22;49296;48.188;11.566;2022-11-09T07:51:21;10.46;58.46
63202;DHT22;49296;48.188;11.566;2022-11-09T07:53:48;10.53;58.57
63202;DHT22;49296;48.188;11.566;2022-11-09T07:56:14;10.66;58.30
63202;DHT22;49296;48.188;11.566;2022-11-09T07:58:41;10.70;57.60
63202;DHT22;49296;48.188;11.566;2022-11-09T08:01:08;10.63;57.74
63202;DHT22;49296;48.188;11.566;2022-11-09T08:03:36;10.68;57.42
63202;DHT22;49296;48.188;11.566;2022-11-09T08:06:02;10.73;57.38
63202;DHT22;49296;48.188;11.566;2022-11-09T08:08:29;10.77;57.05
63202;DHT22;49296;48.188;11.566;2022-11-09T08:10:56;10.79;57.02
63202;DHT22;49296;48.188;11.566;2022-11-09T08:13:23;10.90;56.62
63202;DHT22;49296;48.188;11.566;2022-11-09T08:15:49;10.95;56.47
63202;DHT22;49296;48.188;11.566;2022-11-09T08:18:16;10.93;56.35
63202;DHT22;49296;48.188;11.566;2022-11-09T08:20:45;10.99;56.45
63202;DHT22;49296;48.188;11.566;2022-11-09T08:23:12;11.13;56.28
63202;DHT22;49296;48.188;11.566;2022-11-09T08:25:38;11.27;55.92
63202;DHT22;49296;48.188;11.566;2022-11-09T08:28:05;11.31;55.88
63202;DHT22;49296;48.188;11.566;2022-11-09T08:30:32;11.42;55.54
63202;DHT22;49296;48.188;11.566;2022-11-09T08:32:59;11.43;55.67
63202;DHT22;49296;48.188;11.566;2022-11-09T08:35:26;11.57;55.08
63202;DHT22;49296;48.188;11.566;2022-11-09T08:37:54;11.65;55.00
63202;DHT22;49296;48.188;11.566;2022-11-09T08:40:21;11.73;55.00
63202;DHT22;49296;48.188;11.566;2022-11-09T08:42:48;11.84;55.06
63202;DHT22;49296;48.188;11.566;2022-11-09T08:45:15;11.87;55.04
63202;DHT22;49296;48.188;11.566;2022-11-09T08:47:42;11.87;54.34
63202;DHT22;49296;48.188;11.566;2022-11-09T08:50:09;11.82;54.44
63202;DHT22;49296;48.188;11.566;2022-11-09T08:52:36;11.89;54.33
63202;DHT22;49296;48.188;11.566;2022-11-09T08:55:05;11.93;54.16
63202;DHT22;49296;48.188;11.566;2022-11-09T08:57:32;11.95;54.09
63202;DHT22;49296;48.188;11.566;2022-11-09T08:59:58;12.01;53.90
63202;DHT22;49296;48.188;11.566;2022-11-09T09:02:25;12.04;53.77
63202;DHT22;49296;48.188;11.566;2022-11-09T09:04:51;12.05;53.97
63202;DHT22;49296;48.188;11.566;2022-11-09T09:07:18;12.10;53.89
63202;DHT22;49296;48.188;11.566;2022-11-09T09:09:45;12.08;54.18
63202;DHT22;49296;48.188;11.566;2022-11-09T09:12:13;12.16;54.28
63202;DHT22;49296;48.188;11.566;2022-11-09T09:14:40;12.14;54.13
63202;DHT22;49296;48.188;11.566;2022-11-09T09:17:06;12.25;54.25
63202;DHT22;49296;48.188;11.566;2022-11-09T09:19:33;12.24;54.38
63202;DHT22;49296;48.188;11.566;2022-11-09T09:22:00;12.32;54.11
63202;DHT22;49296;48.188;11.566;2022-11-09T09:24:26;12.41;54.31
63202;DHT22;49296;48.188;11.566;2022-11-09T09:26:53;12.46;54.86
63202;DHT22;49296;48.188;11.566;2022-11-09T09:29:21;12.53;55.71
63202;DHT22;49296;48.188;11.566;2022-11-09T09:31:48;12.63;56.68
63202;DHT22;49296;48.188;11.566;2022-11-09T09:34:14;12.66;58.42
63202;DHT22;49296;48.188;11.566;2022-11-09T09:36:41;12.76;57.80
63202;DHT22;49296;48.188;11.566;2022-11-09T09:39:07;12.94;57.28
63202;DHT22;49296;48.188;11.566;2022-11-09T09:41:35;12.96;56.09
63202;DHT22;49296;48.188;11.566;2022-11-09T09:44:06;13.06;55.95
63202;DHT22;49296;48.188;11.566;2022-11-09T09:46:39;13.03;56.51
63202;DHT22;49296;48.188;11.566;2022-11-09T09:49:10;13.08;56.98
63202;DHT22;49296;48.188;11.566;2022-11-09T09:51:38;13.04;57.32
63202;DHT22;49296;48.188;11.566;2022-11-09T09:54:09;13.04;57.48
63202;DHT22;49296;48.188;11.566;2022-11-09T09:56:37;13.08;57.65
63202;DHT22;49296;48.188;11.566;2022-11-09T09:59:05;13.12;57.29
63202;DHT22;49296;48.188;11.566;2022-11-09T10:01:36;13.14;57.55
63202;DHT22;49296;48.188;11.566;2022-11-09T10:04:08;13.21;57.80
63202;DHT22;49296;48.188;11.566;2022-11-09T10:06:41;13.25;58.26
63202;DHT22;49296;48.188;11.566;2022-11-09T10:09:14;13.31;58.36
63202;DHT22;49296;48.188;11.566;2022-11-09T10:11:46;13.42;58.47
63202;DHT22;49296;48.188;11.566;2022-11-09T10:14:25;13.48;58.62
63202;DHT22;49296;48.188;11.566;2022-11-09T10:16:56;13.51;58.45
63202;DHT22;49296;48.188;11.566;2022-11-09T10:19:29;13.51;58.83
63202;DHT22;49296;48.188;11.566;2022-11-09T10:22:01;13.59;58.42
63202;DHT22;49296;48.188;11.566;2022-11-09T10:24:33;13.69;58.22
63202;DHT22;49296;48.188;11.566;2022-11-09T10:27:01;13.70;58.11
63202;DHT22;49296;48.188;11.566;2022-11-09T10:29:35;13.73;57.82
63202;DHT22;49296;48.188;11.566;2022-11-09T10:32:07;13.77;57.64
63202;DHT22;49296;48.188;11.566;2022-11-09T10:34:38;13.88;57.48
63202;DHT22;49296;48.188;11.566;2022-11-09T10:37:07;13.91;57.30
63202;DHT22;49296;48.188;11.566;2022-11-09T10:39:38;13.94;57.26
63202;DHT22;49296;48.188;11.566;2022-11-09T10:42:08;13.96;57.40
63202;DHT22;49296;48.188;11.566;2022-11-09T10:44:35;14.04;57.32
63202;DHT22;49296;48.188;11.566;2022-11-09T10:47:03;14.04;57.44
63202;DHT22;49296;48.188;11.566;2022-11-09T10:49:30;14.10;57.52
63202;DHT22;49296;48.188;11.566;2022-11-09T10:51:59;14.10;57.46
63202;DHT22;49296;48.188;11.566;2022-11-09T10:54:26;14.17;57.05
63202;DHT22;49296;48.188;11.566;2022-11-09T10:56:58;14.26;57.21
63202;DHT22;49296;48.188;11.566;2022-11-09T10:59:28;14.35;56.86
63202;DHT22;49296;48.188;11.566;2022-11-09T11:01:57;14.35;57.03
63202;DHT22;49296;48.188;11.566;2022-11-09T11:04:24;14.42;56.30
63202;DHT22;49296;48.188;11.566;2022-11-09T11:06:51;14.52;57.30
63202;DHT22;49296;48.188;11.566;2022-11-09T11:09:19;14.63;55.96
63202;DHT22;49296;48.188;11.566;2022-11-09T11:11:47;14.66;55.81
63202;DHT22;49296;48.188;11.566;2022-11-09T11:14:14;14.73;56.32
63202;DHT22;49296;48.188;11.566;2022-11-09T11:16:42;14.73;57.07
63202;DHT22;49296;48.188;11.566;2022-11-09T11:24:40;15.07;55.96
63202;DHT22;49296;48.188;11.566;2022-11-09T11:27:09;15.15;58.80
63202;DHT22;49296;48.188;11.566;2022-11-09T11:29:41;15.28;57.55
63202;DHT22;49296;48.188;11.566;2022-11-09T11:32:09;15.27;55.57
63202;DHT22;49296;48.188;11.566;2022-11-09T11:34:38;15.32;55.09
63202;DHT22;49296;48.188;11.566;2022-11-09T11:37:07;15.43;54.98
63202;DHT22;49296;48.188;11.566;2022-11-09T11:39:42;15.45;55.34
63202;DHT22;49296;48.188;11.566;2022-11-09T11:45:13;15.43;54.97
63202;DHT22;49296;48.188;11.566;2022-11-09T11:47:45;15.42;55.34
63202;DHT22;49296;48.188;11.566;2022-11-09T11:50:27;15.47;55.27
63202;DHT22;49296;48.188;11.566;2022-11-09T11:53:08;15.57;54.84
63202;DHT22;49296;48.188;11.566;2022-11-09T11:55:50;15.63;54.92
63202;DHT22;49296;48.188;11.566;2022-11-09T11:58:22;15.71;54.37
63202;DHT22;49296;48.188;11.566;2022-11-09T12:00:55;15.87;54.65
63202;DHT22;49296;48.188;11.566;2022-11-09T12:03:30;15.93;54.19
63202;DHT22;49296;48.188;11.566;2022-11-09T12:06:02;15.90;54.75
63202;DHT22;49296;48.188;11.566;2022-11-09T12:08:33;16.01;53.83
63202;DHT22;49296;48.188;11.566;2022-11-09T12:11:06;16.02;54.29
63202;DHT22;49296;48.188;11.566;2022-11-09T12:13:46;16.08;54.57
63202;DHT22;49296;48.188;11.566;2022-11-09T12:16:18;16.02;54.69
63202;DHT22;49296;48.188;11.566;2022-11-09T12:18:51;16.01;54.75
63202;DHT22;49296;48.188;11.566;2022-11-09T12:21:20;16.08;54.86
63202;DHT22;49296;48.188;11.566;2022-11-09T12:23:58;16.12;54.44
63202;DHT22;49296;48.188;11.566;2022-11-09T12:26:33;16.18;55.14
63202;DHT22;49296;48.188;11.566;2022-11-09T12:29:04;16.12;54.93
63202;DHT22;49296;48.188;11.566;2022-11-09T12:31:36;16.26;54.72
63202;DHT22;49296;48.188;11.566;2022-11-09T12:34:06;16.38;54.71
63202;DHT22;49296;48.188;11.566;2022-11-09T12:36:36;16.38;55.25
63202;DHT22;49296;48.188;11.566;2022-11-09T12:39:05;16.39;55.51
63202;DHT22;49296;48.188;11.566;2022-11-09T12:41:34;16.49;55.43
63202;DHT22;49296;48.188;11.566;2022-11-09T12:44:03;16.42;55.54
63202;DHT22;49296;48.188;11.566;2022-11-09T12:46:32;16.35;55.91
63202;DHT22;49296;48.188;11.566;2022-11-09T12:49:01;16.32;55.99
63202;DHT22;49296;48.188;11.566;2022-11-09T12:51:28;16.35;56.76
63202;DHT22;49296;48.188;11.566;2022-11-09T12:53:55;16.36;56.51
63202;DHT22;49296;48.188;11.566;2022-11-09T12:56:23;16.39;56.64
63202;DHT22;49296;48.188;11.566;2022-11-09T12:58:52;16.30;57.13
63202;DHT22;49296;48.188;11.566;2022-11-09T13:01:45;16.19;57.50
63202;DHT22;49296;48.188;11.566;2022-11-09T13:04:15;16.11;57.55
63202;DHT22;49296;48.188;11.566;2022-11-09T13:06:42;16.24;57.77
63202;DHT22;49296;48.188;11.566;2022-11-09T13:09:29;16.14;58.88
63202;DHT22;49296;48.188;11.566;2022-11-09T13:11:55;16.16;58.87
63202;DHT22;49296;48.188;11.566;2022-11-09T13:14:29;16.11;58.88
63202;DHT22;49296;48.188;11.566;2022-11-09T13:16:59;16.11;58.99
63202;DHT22;49296;48.188;11.566;2022-11-09T13:24:52;16.00;59.12
63202;DHT22;49296;48.188;11.566;2022-11-09T13:27:36;15.93;58.79
63202;DHT22;49296;48.188;11.566;2022-11-09T13:30:34;15.86;59.08
63202;DHT22;49296;48.188;11.566;2022-11-09T13:38:27;16.02;58.88
63202;DHT22;49296;48.188;11.566;2022-11-09T13:40:55;16.01;59.23
63202;DHT22;49296;48.188;11.566;2022-11-09T13:43:28;16.08;59.64
63202;DHT22;49296;48.188;11.566;2022-11-09T13:45:57;16.00;59.81
63202;DHT22;49296;48.188;11.566;2022-11-09T13:48:42;15.91;59.60
63202;DHT22;49296;48.188;11.566;2022-11-09T13:51:10;15.97;59.72
63202;DHT22;49296;48.188;11.566;2022-11-09T13:53:54;16.01;59.79
63202;DHT22;49296;48.188;11.566;2022-11-09T13:56:22;16.00;60.04
63202;DHT22;49296;48.188;11.566;2022-11-09T13:58:50;15.97;59.33
63202;DHT22;49296;48.188;11.566;2022-11-09T14:01:26;16.01;59.96
63202;DHT22;49296;48.188;11.566;2022-11-09T14:03:53;16.11;59.53
63202;DHT22;49296;48.188;11.566;2022-11-09T14:06:20;15.94;59.25
63202;DHT22;49296;48.188;11.566;2022-11-09T14:08:46;15.96;60.04
63202;DHT22;49296;48.188;11.566;2022-11-09T14:14:19;16.12;59.30
63202;DHT22;49296;48.188;11.566;2022-11-09T14:16:54;15.97;60.03
63202;DHT22;49296;48.188;11.566;2022-11-09T14:19:26;15.97;60.26
63202;DHT22;49296;48.188;11.566;2022-11-09T14:21:55;15.97;59.91
63202;DHT22;49296;48.188;11.566;2022-11-09T14:24:22;15.98;59.69
63202;DHT22;49296;48.188;11.566;2022-11-09T14:27:03;15.86;60.02
63202;DHT22;49296;48.188;11.566;2022-11-09T14:29:30;15.83;60.06
63202;DHT22;49296;48.188;11.566;2022-11-09T14:32:01;15.86;60.86
63202;DHT22;49296;48.188;11.566;2022-11-09T14:34:28;15.76;61.19
63202;DHT22;49296;48.188;11.566;2022-11-09T14:36:55;15.69;61.36
63202;DHT22;49296;48.188;11.566;2022-11-09T14:39:26;15.67;61.53
63202;DHT22;49296;48.188;11.566;2022-11-09T14:41:53;15.60;61.42
63202;DHT22;49296;48.188;11.566;2022-11-09T14:44:22;15.73;61.29
63202;DHT22;49296;48.188;11.566;2022-11-09T14:46:50;15.88;60.97
63202;DHT22;49296;48.188;11.566;2022-11-09T14:49:19;15.90;60.81
63202;DHT22;49296;48.188;11.566;2022-11-09T14:51:46;15.94;60.73
63202;DHT22;49296;48.188;11.566;2022-11-09T14:54:13;15.90;60.78
63202;DHT22;49296;48.188;11.566;2022-11-09T14:56:42;15.94;60.55
63202;DHT22;49296;48.188;11.566;2022-11-09T14:59:11;15.91;60.70
63202;DHT22;49296;48.188;11.566;2022-11-09T15:01:38;15.76;61.18
63202;DHT22;49296;48.188;11.566;2022-11-09T15:04:06;15.80;61.30
63202;DHT22;49296;48.188;11.566;2022-11-09T15:06:34;15.81;61.17
63202;DHT22;49296;48.188;11.566;2022-11-09T15:09:02;15.81;61.39
63202;DHT22;49296;48.188;11.566;2022-11-09T15:11:30;15.81;61.29
63202;DHT22;49296;48.188;11.566;2022-11-09T15:13:57;15.74;61.39
63202;DHT22;49296;48.188;11.566;2022-11-09T15:16:26;15.79;61.45
63202;DHT22;49296;48.188;11.566;2022-11-09T15:18:53;15.69;61.80
63202;DHT22;49296;48.188;11.566;2022-11-09T15:21:31;15.70;61.94
63202;DHT22;49296;48.188;11.566;2022-11-09T15:24:03;15.66;61.97
63202;DHT22;49296;48.188;11.566;2022-11-09T15:26:34;15.63;61.99
63202;DHT22;49296;48.188;11.566;2022-11-09T15:29:00;15.62;62.22
63202;DHT22;49296;48.188;11.566;2022-11-09T15:31:27;15.59;62.36
63202;DHT22;49296;48.188;11.566;2022-11-09T15:33:54;15.55;62.70
63202;DHT22;49296;48.188;11.566;2022-11-09T15:36:25;15.52;62.64
63202;DHT22;49296;48.188;11.566;2022-11-09T15:38:59;15.45;62.74
63202;DHT22;49296;48.188;11.566;2022-11-09T15:41:27;15.40;62.92
63202;DHT22;49296;48.188;11.566;2022-11-09T15:43:54;15.43;62.89
63202;DHT22;49296;48.188;11.566;2022-11-09T15:46:21;15.40;63.00
63202;DHT22;49296;48.188;11.566;2022-11-09T15:48:48;15.31;63.38
63202;DHT22;49296;48.188;11.566;2022-11-09T15:51:16;15.34;63.42
63202;DHT22;49296;48.188;11.566;2022-11-09T15:53:43;15.31;63.60